Time;durP1;ratioP1;P1;durP2;ratioP2;P2;SDS_P1;SDS_P2;PMS_P1;PMS_P2;Temp;Humidity;BMP_temperature;BMP_pressure;BME280_temperature;BME280_humidity;BME280_pressure;Samples;Min_cycle;Max_cycle;Signal;HPM_P1;HPM_P2
2021/10/24 00:02:08;;;;;;;0.20;0.20;;;;;;;;;;10542425;28;20046;-70
2021/10/24 00:07:11;;;;;;;0.10;0.10;;;;;;;;;;10556292;28;20123;-70
2021/10/24 00:12:15;;;;;;;0.10;0.10;;;;;;;;;;10515029;28;20155;-70
2021/10/24 00:17:18;;;;;;;0.17;0.17;;;;;;;;;;10548554;28;20058;-70
2021/10/24 00:22:21;;;;;;;0.17;0.17;;;;;;;;;;10563643;28;20036;-70
2021/10/24 00:27:26;;;;;;;0.10;0.10;;;;;;;;;;10557125;28;20048;-70
2021/10/24 00:32:29;;;;;;;0.20;0.20;;;;;;;;;;10529577;28;20051;-70
2021/10/24 00:37:31;;;;;;;0.20;0.20;;;;;;;;;;10535521;28;20078;-70
2021/10/24 00:42:36;;;;;;;0.10;0.10;;;;;;;;;;10528827;28;20044;-70
2021/10/24 00:47:39;;;;;;;0.10;0.10;;;;;;;;;;10551280;28;20134;-70
2021/10/24 00:52:42;;;;;;;0.20;0.20;;;;;;;;;;10534174;28;20039;-70
2021/10/24 00:57:47;;;;;;;0.20;0.20;;;;;;;;;;10550603;28;20051;-70
2021/10/24 01:02:50;;;;;;;0.20;0.20;;;;;;;;;;10527451;28;20051;-70
2021/10/24 01:07:53;;;;;;;0.20;0.20;;;;;;;;;;10542410;28;20855;-70
2021/10/24 01:12:58;;;;;;;0.10;0.10;;;;;;;;;;10519170;28;20097;-70
2021/10/24 01:18:01;;;;;;;0.10;0.10;;;;;;;;;;10529757;28;20039;-70
2021/10/24 01:23:05;;;;;;;0.10;0.10;;;;;;;;;;10538540;28;20040;-69
2021/10/24 01:28:08;;;;;;;0.20;0.20;;;;;;;;;;10555369;28;20043;-70
2021/10/24 01:33:12;;;;;;;0.20;0.20;;;;;;;;;;10498634;28;20733;-70
2021/10/24 01:38:17;;;;;;;0.20;0.20;;;;;;;;;;10486279;28;20051;-70
2021/10/24 01:43:20;;;;;;;0.10;0.10;;;;;;;;;;10510345;28;20040;-70
2021/10/24 01:48:24;;;;;;;0.20;0.20;;;;;;;;;;10501516;28;20036;-70
2021/10/24 01:53:29;;;;;;;0.20;0.20;;;;;;;;;;10489391;28;20094;-70
2021/10/24 01:58:33;;;;;;;0.10;0.10;;;;;;;;;;10483399;28;20052;-70
2021/10/24 02:03:36;;;;;;;0.20;0.20;;;;;;;;;;10490887;28;20048;-70
2021/10/24 02:09:00;;;;;;;0.20;0.20;;;;;;;;;;10493063;28;20056;-70
2021/10/24 02:14:02;;;;;;;0.20;0.20;;;;;;;;;;10484387;28;20052;-70
2021/10/24 02:19:11;;;;;;;0.20;0.20;;;;;;;;;;10495157;27;20052;-70
2021/10/24 02:24:15;;;;;;;0.10;0.10;;;;;;;;;;10492955;28;20071;-70
2021/10/24 02:29:18;;;;;;;0.20;0.20;;;;;;;;;;10496688;28;20052;-70
2021/10/24 02:34:22;;;;;;;0.20;0.20;;;;;;;;;;10516007;28;20052;-70
2021/10/24 02:39:46;;;;;;;0.20;0.20;;;;;;;;;;10513740;28;20112;-70
2021/10/24 02:44:49;;;;;;;0.20;0.20;;;;;;;;;;10509557;28;20072;-70
2021/10/24 02:49:52;;;;;;;0.20;0.20;;;;;;;;;;10495361;28;20150;-70
2021/10/24 02:54:56;;;;;;;0.20;0.20;;;;;;;;;;10497820;28;20140;-70
2021/10/24 02:59:59;;;;;;;0.20;0.20;;;;;;;;;;10497618;28;20054;-70
2021/10/24 03:05:02;;;;;;;0.20;0.20;;;;;;;;;;10494981;28;20398;-70
2021/10/24 03:10:07;;;;;;;0.20;0.20;;;;;;;;;;10494304;28;20414;-70
2021/10/24 03:15:12;;;;;;;0.20;0.20;;;;;;;;;;10493021;28;20505;-70
2021/10/24 03:20:14;;;;;;;0.20;0.20;;;;;;;;;;10492377;28;20511;-70
2021/10/24 03:25:19;;;;;;;0.10;0.10;;;;;;;;;;10496161;28;20052;-70
2021/10/24 03:30:22;;;;;;;0.20;0.20;;;;;;;;;;10504144;28;20124;-70
2021/10/24 03:35:25;;;;;;;0.17;0.17;;;;;;;;;;10511844;28;20120;-70
2021/10/24 03:40:30;;;;;;;0.20;0.20;;;;;;;;;;10513020;28;20080;-70
2021/10/24 03:45:34;;;;;;;0.20;0.20;;;;;;;;;;10515045;28;20044;-70
2021/10/24 03:50:37;;;;;;;0.20;0.20;;;;;;;;;;10547062;27;20501;-70
2021/10/24 03:55:41;;;;;;;0.20;0.20;;;;;;;;;;10515022;28;20051;-70
2021/10/24 04:00:44;;;;;;;0.20;0.20;;;;;;;;;;10513828;28;20142;-70
2021/10/24 04:05:50;;;;;;;0.20;0.20;;;;;;;;;;10514224;28;20048;-70
2021/10/24 04:10:55;;;;;;;0.20;0.20;;;;;;;;;;10548520;27;20133;-70
2021/10/24 04:15:58;;;;;;;0.10;0.10;;;;;;;;;;10543122;27;20143;-70
2021/10/24 04:21:19;;;;;;;0.20;0.20;;;;;;;;;;10523779;28;20486;-70
2021/10/24 04:26:26;;;;;;;0.20;0.20;;;;;;;;;;10510723;28;20048;-70
2021/10/24 04:31:29;;;;;;;0.20;0.20;;;;;;;;;;10551579;27;20040;-70
2021/10/24 04:36:32;;;;;;;0.15;0.15;;;;;;;;;;10517867;28;20052;-70
2021/10/24 04:41:38;;;;;;;0.20;0.20;;;;;;;;;;10517678;28;20047;-70
2021/10/24 04:46:41;;;;;;;0.20;0.20;;;;;;;;;;10519015;28;20123;-70
2021/10/24 04:51:44;;;;;;;0.20;0.20;;;;;;;;;;10524970;28;20075;-70
2021/10/24 04:56:49;;;;;;;0.20;0.20;;;;;;;;;;10517370;28;20097;-69
2021/10/24 05:01:52;;;;;;;0.20;0.20;;;;;;;;;;10515857;28;20052;-70
2021/10/24 05:06:56;;;;;;;0.20;0.20;;;;;;;;;;10517743;28;20109;-70
2021/10/24 05:12:00;;;;;;;0.20;0.20;;;;;;;;;;10530456;28;20043;-69
2021/10/24 05:17:04;;;;;;;0.20;0.20;;;;;;;;;;10514466;28;20497;-69
2021/10/24 05:22:07;;;;;;;0.20;0.20;;;;;;;;;;10516569;28;20052;-69
2021/10/24 05:27:12;;;;;;;0.20;0.20;;;;;;;;;;10520643;28;20040;-69
2021/10/24 05:32:16;;;;;;;0.20;0.20;;;;;;;;;;10556509;27;20798;-69
2021/10/24 05:37:19;;;;;;;0.20;0.20;;;;;;;;;;10537196;28;20050;-69
2021/10/24 05:42:23;;;;;;;0.20;0.20;;;;;;;;;;10557809;28;20138;-69
2021/10/24 05:47:28;;;;;;;0.20;0.20;;;;;;;;;;10550337;28;20489;-68
2021/10/24 05:52:37;;;;;;;0.20;0.20;;;;;;;;;;10533719;28;20737;-68
2021/10/24 05:57:42;;;;;;;0.20;0.20;;;;;;;;;;10532417;28;20774;-68
2021/10/24 06:02:47;;;;;;;0.20;0.20;;;;;;;;;;10550480;28;20050;-68
2021/10/24 06:08:17;;;;;;;0.22;0.22;;;;;;;;;;10547492;28;20036;-69
2021/10/24 06:13:20;;;;;;;;;;;;;;;;;;10555467;28;20050;-69
2021/10/24 06:18:24;;;;;;;0.20;0.20;;;;;;;;;;10537777;28;19949;-69
2021/10/24 06:23:27;;;;;;;0.20;0.20;;;;;;;;;;10539139;28;20503;-69
2021/10/24 06:28:34;;;;;;;0.20;0.20;;;;;;;;;;10537752;28;20051;-69
2021/10/24 06:33:40;;;;;;;0.20;0.20;;;;;;;;;;10539704;28;20051;-69
2021/10/24 06:39:01;;;;;;;0.17;0.17;;;;;;;;;;10554645;28;20047;-68
2021/10/24 06:44:06;;;;;;;0.20;0.20;;;;;;;;;;10551484;28;20497;-69
2021/10/24 06:49:26;;;;;;;0.20;0.20;;;;;;;;;;10555690;28;20072;-69
2021/10/24 06:54:42;;;;;;;0.20;0.20;;;;;;;;;;10537073;28;20602;-69
2021/10/24 07:00:11;;;;;;;0.20;0.20;;;;;;;;;;10505499;28;20058;-69
2021/10/24 07:05:32;;;;;;;;;;;;;;;;;;10553547;28;20493;-69
2021/10/24 07:10:41;;;;;;;0.20;0.20;;;;;;;;;;10536666;28;19923;-69
2021/10/24 07:15:44;;;;;;;0.10;0.10;;;;;;;;;;10535789;28;20043;-69
2021/10/24 07:20:47;;;;;;;0.20;0.20;;;;;;;;;;10554348;28;20733;-69
2021/10/24 07:25:52;;;;;;;0.20;0.20;;;;;;;;;;10538682;28;20043;-69
2021/10/24 07:30:56;;;;;;;0.20;0.20;;;;;;;;;;10532408;28;20586;-69
2021/10/24 07:35:59;;;;;;;0.20;0.20;;;;;;;;;;10513729;28;20470;-67
2021/10/24 07:41:04;;;;;;;0.20;0.20;;;;;;;;;;10506852;28;20044;-65
2021/10/24 07:46:07;;;;;;;0.20;0.20;;;;;;;;;;10505267;28;20074;-66
2021/10/24 07:51:10;;;;;;;0.20;0.20;;;;;;;;;;10500070;28;20044;-64
2021/10/24 07:56:15;;;;;;;0.20;0.20;;;;;;;;;;10500493;28;20946;-66
2021/10/24 08:01:33;;;;;;;0.10;0.10;;;;;;;;;;10504062;28;20098;-65
2021/10/24 08:06:37;;;;;;;0.15;0.15;;;;;;;;;;10500720;28;20109;-66
2021/10/24 08:11:43;;;;;;;0.10;0.10;;;;;;;;;;10505269;28;20048;-65
2021/10/24 08:16:46;;;;;;;0.20;0.20;;;;;;;;;;10532563;28;20032;-69
2021/10/24 08:21:57;;;;;;;0.20;0.20;;;;;;;;;;10512940;28;20040;-66
2021/10/24 08:27:03;;;;;;;0.20;0.20;;;;;;;;;;10509979;28;20052;-66
2021/10/24 08:32:09;;;;;;;0.20;0.20;;;;;;;;;;10516821;28;20152;-65
2021/10/24 08:37:12;;;;;;;0.10;0.10;;;;;;;;;;10536266;28;20059;-67
2021/10/24 08:42:18;;;;;;;0.10;0.10;;;;;;;;;;10541809;28;20154;-67
2021/10/24 08:47:21;;;;;;;0.10;0.10;;;;;;;;;;10541638;28;20813;-67
2021/10/24 08:52:25;;;;;;;0.10;0.10;;;;;;;;;;10532921;28;20387;-66
2021/10/24 08:57:30;;;;;;;0.20;0.20;;;;;;;;;;10532153;28;20540;-70
2021/10/24 09:17:45;;;;;;;9.30;2.30;;;;;;;;;;10562068;27;21046;-57
2021/10/24 09:26:22;;;;;;;7.38;2.20;;;;;;;19.75;47.90;99479.13;10315492;28;61351;-51
2021/10/24 09:31:28;;;;;;;7.45;2.08;;;;;;;19.74;43.07;99471.09;10370918;28;61494;-66
2021/10/24 09:36:33;;;;;;;6.95;2.13;;;;;;;19.29;40.64;99474.84;10350591;28;20432;-58
2021/10/24 09:42:17;;;;;;;4.90;1.80;;;;;;;19.34;42.40;99472.41;10353333;28;20046;-57
2021/10/24 09:47:22;;;;;;;4.63;1.70;;;;;;;20.21;43.81;99468.84;10362948;28;20042;-49
2021/10/24 09:52:27;;;;;;;13.73;2.90;;;;;;;20.84;43.91;99477.06;10359399;28;20046;-54
2021/10/24 09:57:35;;;;;;;6.68;2.30;;;;;;;21.29;43.76;99464.81;10383690;28;20461;-59
2021/10/24 10:02:39;;;;;;;9.50;2.00;;;;;;;21.99;43.83;99457.16;10358270;28;20056;-49
2021/10/24 10:14:54;;;;;;;6.53;2.00;;;;;;;15.90;50.81;99441.78;10595771;27;21009;-67
2021/10/24 10:19:59;;;;;;;6.50;1.90;;;;;;;13.86;57.20;99437.94;10551770;27;20066;-67
2021/10/24 10:25:04;;;;;;;8.52;1.95;;;;;;;12.51;64.05;99441.41;10510059;28;20047;-67
2021/10/24 10:30:12;;;;;;;9.20;2.05;;;;;;;11.84;76.48;99434.16;10497143;28;20056;-67
2021/10/24 10:35:17;;;;;;;5.57;1.70;;;;;;;11.20;82.30;99426.50;10522254;28;20048;-67
2021/10/24 10:40:23;;;;;;;11.35;2.15;;;;;;;10.89;83.62;99423.91;10546587;28;20507;-68
2021/10/24 10:45:42;;;;;;;8.43;1.80;;;;;;;10.68;88.56;99420.47;10543781;28;20066;-67
2021/10/24 10:50:48;;;;;;;8.63;1.77;;;;;;;10.57;91.78;99413.31;10543916;28;20039;-67
2021/10/24 10:56:19;;;;;;;6.65;1.92;;;;;;;10.47;88.34;99402.50;10545064;28;20056;-67
2021/10/24 11:01:31;;;;;;;6.70;1.43;;;;;;;10.42;86.25;99402.91;10547462;28;20910;-68
2021/10/24 11:06:56;;;;;;;7.03;1.70;;;;;;;10.43;80.92;99398.41;10545476;28;20442;-67
2021/10/24 11:12:01;;;;;;;4.68;1.70;;;;;;;10.43;86.66;99401.94;10541657;28;20561;-66
2021/10/24 11:17:06;;;;;;;9.70;1.90;;;;;;;10.55;89.59;99402.69;10560923;28;20139;-64
2021/10/24 11:22:11;;;;;;;7.57;1.55;;;;;;;10.57;90.21;99397.16;10539116;28;20485;-65
2021/10/24 11:27:16;;;;;;;5.28;1.70;;;;;;;10.63;88.08;99388.53;10518272;28;20441;-64
2021/10/24 11:32:25;;;;;;;5.47;1.70;;;;;;;10.77;86.42;99398.06;10517122;28;20044;-65
2021/10/24 11:37:35;;;;;;;6.72;1.92;;;;;;;10.83;94.34;99380.50;10516843;28;20059;-65
2021/10/24 11:42:39;;;;;;;5.38;1.65;;;;;;;10.93;92.22;99375.97;10516228;28;20032;-64
2021/10/24 11:53:38;;;;;;;6.00;1.80;;;;;;;11.10;96.54;99356.41;10221806;29;20118;-86
2021/10/24 11:59:05;;;;;;;10.35;1.90;;;;;;;11.20;89.05;99350.97;10216054;29;20520;-83
2021/10/24 12:04:10;;;;;;;6.68;1.60;;;;;;;11.30;91.07;99351.00;10222080;29;20142;-78
2021/10/24 12:09:34;;;;;;;8.82;1.60;;;;;;;11.41;82.79;99342.75;10157441;28;100317;-79
2021/10/24 12:14:52;;;;;;;7.65;1.70;;;;;;;11.54;77.28;99341.59;10232443;28;20518;-77
2021/10/24 12:20:15;;;;;;;6.05;1.70;;;;;;;11.67;77.00;99325.94;10214924;29;20043;-79
2021/10/24 12:30:51;;;;;;;7.50;1.65;;;;;;;12.00;81.08;99314.75;10571172;27;20631;-66
2021/10/24 12:35:58;;;;;;;6.53;1.80;;;;;;;12.17;75.46;99307.75;10419918;27;20049;-66
2021/10/24 12:41:01;;;;;;;4.82;1.80;;;;;;;12.35;75.83;99301.53;10426091;28;20051;-66
2021/10/24 12:46:05;;;;;;;3.97;1.55;;;;;;;12.50;73.73;99289.19;10427925;28;20172;-66
2021/10/24 12:51:23;;;;;;;5.53;1.80;;;;;;;12.68;70.59;99291.06;10425689;28;20112;-66
2021/10/24 12:56:28;;;;;;;7.22;1.90;;;;;;;12.90;66.39;99279.78;10424130;28;20132;-66
2021/10/24 13:01:35;;;;;;;5.68;1.65;;;;;;;13.01;68.20;99275.13;10425762;28;20835;-66
2021/10/24 13:06:38;;;;;;;5.63;1.70;;;;;;;13.18;62.73;99266.16;10422094;28;20041;-66
2021/10/24 13:11:42;;;;;;;4.40;1.77;;;;;;;13.35;68.25;99268.97;10422611;28;20041;-66
2021/10/24 13:16:47;;;;;;;6.80;1.77;;;;;;;13.59;69.88;99256.63;10430108;28;20498;-66
2021/10/24 13:27:10;;;;;;;6.90;1.85;;;;;;;13.88;70.90;99250.84;10424758;28;20045;-66
2021/10/24 13:32:15;;;;;;;4.97;1.77;;;;;;;14.01;67.13;99243.13;10426143;28;20069;-66
2021/10/24 13:37:18;;;;;;;7.68;1.70;;;;;;;14.25;65.35;99229.84;10436524;28;20399;-66
2021/10/24 13:42:22;;;;;;;5.03;1.70;;;;;;;14.38;65.06;99235.63;10404876;28;20037;-66
2021/10/24 13:47:27;;;;;;;7.70;2.00;;;;;;;14.41;60.43;99224.44;10401529;28;20042;-66
2021/10/24 13:52:31;;;;;;;6.85;1.98;;;;;;;14.62;62.10;99226.69;10393939;28;20508;-66
2021/10/24 13:57:34;;;;;;;5.88;1.90;;;;;;;14.69;60.87;99221.47;10398910;28;20508;-66
2021/10/24 14:02:47;;;;;;;4.90;1.80;;;;;;;14.74;61.86;99219.13;10399160;28;20390;-64
2021/10/24 14:07:51;;;;;;;6.10;1.80;;;;;;;14.90;61.13;99215.56;10397611;28;20037;-64
2021/10/24 14:12:56;;;;;;;5.07;1.77;;;;;;;15.04;60.76;99205.88;10396517;28;20729;-64
2021/10/24 14:18:00;;;;;;;6.47;2.03;;;;;;;15.16;65.38;99197.38;10395025;28;20048;-67
2021/10/24 14:23:04;;;;;;;5.97;2.10;;;;;;;15.24;61.12;99197.34;10398094;28;20125;-64
2021/10/24 14:28:08;;;;;;;5.68;1.67;;;;;;;15.31;61.45;99198.38;10394939;28;20057;-65
2021/10/24 14:33:13;;;;;;;6.55;2.00;;;;;;;15.35;64.30;99193.44;10396031;28;20044;-64
2021/10/24 14:38:16;;;;;;;6.95;2.05;;;;;;;15.32;61.49;99183.78;10393756;28;20399;-62
2021/10/24 14:43:20;;;;;;;3.67;1.67;;;;;;;15.15;62.04;99185.69;10393898;28;20055;-63
2021/10/24 14:48:24;;;;;;;6.30;1.90;;;;;;;15.10;64.91;99180.78;10387721;28;20038;-66
2021/10/24 14:53:27;;;;;;;5.68;2.00;;;;;;;15.09;67.06;99170.94;10408123;28;20071;-63
2021/10/24 14:58:30;;;;;;;3.25;1.75;;;;;;;14.98;68.60;99167.72;10411529;28;20494;-64
2021/10/24 15:03:35;;;;;;;5.22;1.80;;;;;;;14.85;63.54;99166.38;10407873;28;20132;-64
2021/10/24 15:08:40;;;;;;;8.10;2.20;;;;;;;14.67;65.21;99163.84;10399191;28;20056;-64
2021/10/24 15:13:43;;;;;;;5.53;1.90;;;;;;;14.46;64.51;99158.91;10404062;28;20056;-64
2021/10/24 15:24:04;;;;;;;7.88;2.20;;;;;;;14.03;68.73;99146.28;10404552;28;20547;-64
2021/10/24 15:29:08;;;;;;;4.20;1.70;;;;;;;13.84;74.81;99135.75;10405504;28;20045;-64
2021/10/24 15:34:14;;;;;;;7.10;2.20;;;;;;;13.63;78.25;99133.47;10411956;28;20051;-64
2021/10/24 15:39:17;;;;;;;6.53;2.08;;;;;;;13.42;79.33;99142.84;10404996;28;20060;-64
2021/10/24 15:44:21;;;;;;;8.77;2.05;;;;;;;13.18;80.92;99130.88;10409546;28;20045;-64
2021/10/24 15:49:25;;;;;;;6.40;2.08;;;;;;;12.98;80.54;99129.41;10400585;28;20092;-64
2021/10/24 15:54:28;;;;;;;5.75;1.73;;;;;;;12.69;81.97;99126.00;10406855;28;20487;-64
2021/10/24 15:59:31;;;;;;;7.32;2.17;;;;;;;12.35;82.66;99115.06;10404785;28;20047;-64
2021/10/24 16:04:36;;;;;;;5.88;2.28;;;;;;;11.98;85.90;99117.75;10401367;28;20107;-64
2021/10/24 16:09:39;;;;;;;5.88;2.10;;;;;;;11.67;89.33;99106.44;10402704;28;20120;-64
2021/10/24 16:14:42;;;;;;;7.72;2.30;;;;;;;11.37;90.46;99106.59;10402015;28;20045;-64
2021/10/24 16:19:47;;;;;;;9.75;2.30;;;;;;;11.11;93.33;99101.03;10402892;28;20119;-63
2021/10/24 16:24:50;;;;;;;8.05;2.38;;;;;;;10.88;97.69;99103.22;10402457;28;20091;-64
2021/10/24 16:29:53;;;;;;;6.20;2.53;;;;;;;10.59;100.00;99104.16;10407108;28;20049;-67
2021/10/24 16:34:58;;;;;;;9.25;2.63;;;;;;;10.30;100.00;99099.63;10405146;28;20442;-66
2021/10/24 16:40:02;;;;;;;8.45;2.83;;;;;;;10.02;100.00;99102.19;10403956;28;20038;-65
2021/10/24 16:45:07;;;;;;;9.77;3.42;;;;;;;9.70;100.00;99092.53;10408533;28;20479;-66
2021/10/24 16:50:17;;;;;;;9.38;2.63;;;;;;;9.46;100.00;99096.44;10405538;28;20121;-69
2021/10/24 16:55:27;;;;;;;6.85;2.40;;;;;;;9.24;100.00;99094.81;10396405;28;20038;-65
2021/10/24 17:00:37;;;;;;;9.30;2.85;;;;;;;9.01;100.00;99091.44;10411431;28;20793;-66
2021/10/24 17:05:43;;;;;;;6.68;2.25;;;;;;;8.82;100.00;99098.44;10409463;28;20052;-67
2021/10/24 17:10:46;;;;;;;8.95;2.88;;;;;;;8.71;100.00;99101.22;10399349;28;20047;-67
2021/10/24 17:15:49;;;;;;;7.53;2.70;;;;;;;8.65;100.00;99094.53;10412060;28;20168;-67
2021/10/24 17:20:54;;;;;;;6.90;2.40;;;;;;;8.53;100.00;99104.47;10407092;28;20041;-67
2021/10/24 17:25:57;;;;;;;7.03;2.35;;;;;;;8.42;100.00;99104.53;10403486;28;20045;-67
2021/10/24 17:31:00;;;;;;;9.73;2.40;;;;;;;8.31;100.00;99092.84;10406333;28;20037;-67
2021/10/24 17:36:09;;;;;;;5.60;2.20;;;;;;;8.24;100.00;99090.81;10402445;28;20048;-67
2021/10/24 17:41:17;;;;;;;9.48;2.50;;;;;;;8.16;100.00;99076.22;10404298;28;20041;-67
2021/10/24 17:46:20;;;;;;;7.28;2.63;;;;;;;8.12;100.00;99079.31;10407257;28;20042;-67
2021/10/24 17:51:25;;;;;;;6.90;2.42;;;;;;;8.07;100.00;99078.81;10399527;28;20470;-67
2021/10/24 17:56:30;;;;;;;9.18;2.47;;;;;;;8.01;100.00;99070.31;10402224;28;20958;-67
2021/10/24 18:01:33;;;;;;;6.88;2.58;;;;;;;7.97;100.00;99068.88;10393963;28;20444;-69
2021/10/24 18:06:38;;;;;;;8.48;2.40;;;;;;;7.89;100.00;99063.31;10420491;28;20050;-69
2021/10/24 18:11:41;;;;;;;8.40;2.53;;;;;;;7.82;100.00;99064.81;10407107;28;20044;-67
2021/10/24 18:16:45;;;;;;;7.95;2.85;;;;;;;7.72;100.00;99062.88;10411763;28;20037;-68
2021/10/24 18:21:50;;;;;;;8.60;2.80;;;;;;;7.63;100.00;99052.06;10410739;28;21460;-69
2021/10/24 18:26:53;;;;;;;6.57;2.80;;;;;;;7.56;100.00;99046.38;10411461;28;20046;-69
2021/10/24 18:31:56;;;;;;;7.78;2.90;;;;;;;7.43;100.00;99041.13;10410609;28;20075;-68
2021/10/24 18:37:01;;;;;;;9.63;3.17;;;;;;;7.30;100.00;99024.34;10404532;28;20063;-69
2021/10/24 18:42:08;;;;;;;8.95;3.10;;;;;;;7.18;100.00;99023.53;10405184;28;20045;-67
2021/10/24 18:47:14;;;;;;;8.95;3.00;;;;;;;7.12;100.00;99010.63;10404789;28;20514;-68
2021/10/24 18:52:21;;;;;;;6.80;2.88;;;;;;;7.01;100.00;99004.31;10399752;28;20045;-69
2021/10/24 18:57:26;;;;;;;7.55;2.80;;;;;;;6.92;100.00;98999.72;10402561;28;20041;-70
2021/10/24 19:02:31;;;;;;;8.95;3.38;;;;;;;6.82;100.00;99004.94;10398141;28;20068;-69
2021/10/24 19:07:38;;;;;;;9.05;2.78;;;;;;;6.76;100.00;98997.41;10403643;28;20065;-67
2021/10/24 19:12:44;;;;;;;9.07;3.45;;;;;;;6.67;100.00;98996.31;10400037;28;20446;-67
2021/10/24 19:17:49;;;;;;;6.53;2.75;;;;;;;6.59;100.00;98990.72;10396927;28;20087;-68
2021/10/24 19:22:59;;;;;;;7.65;2.83;;;;;;;6.47;100.00;98990.72;10400451;28;20383;-67
2021/10/24 19:28:04;;;;;;;7.35;2.60;;;;;;;6.43;100.00;98991.94;10400792;28;20802;-69
2021/10/24 19:33:09;;;;;;;6.20;2.55;;;;;;;6.40;100.00;98996.66;10394505;28;20052;-69
2021/10/24 19:38:16;;;;;;;10.73;3.00;;;;;;;6.36;100.00;98992.53;10393396;28;20052;-68
2021/10/24 19:43:20;;;;;;;9.48;3.17;;;;;;;6.32;100.00;99000.81;10388042;28;20095;-69
2021/10/24 19:48:27;;;;;;;6.85;2.85;;;;;;;6.30;100.00;99001.88;10394159;28;20447;-69
2021/10/24 19:53:31;;;;;;;9.93;2.95;;;;;;;6.34;100.00;98989.97;10401334;28;20112;-69
2021/10/24 19:58:35;;;;;;;7.35;2.85;;;;;;;6.35;100.00;98988.19;10394521;28;20030;-69
2021/10/24 20:03:41;;;;;;;8.85;3.00;;;;;;;6.30;100.00;98986.69;10396140;28;20064;-68
2021/10/24 20:08:49;;;;;;;7.57;2.67;;;;;;;6.24;100.00;98991.69;10393692;28;20449;-68
2021/10/24 20:13:56;;;;;;;9.45;3.42;;;;;;;6.25;100.00;98990.72;10392406;28;20068;-68
2021/10/24 20:19:00;;;;;;;9.23;3.03;;;;;;;6.32;100.00;98989.25;10396810;28;20232;-68
2021/10/24 20:24:06;;;;;;;8.55;3.08;;;;;;;6.28;100.00;98991.31;10400606;28;20369;-68
2021/10/24 20:29:10;;;;;;;11.02;2.95;;;;;;;6.33;100.00;98993.63;10403831;28;20099;-68
2021/10/24 20:34:14;;;;;;;10.00;3.42;;;;;;;6.34;100.00;98989.16;10403207;28;20046;-68
2021/10/24 20:39:19;;;;;;;13.13;3.55;;;;;;;6.30;100.00;98988.50;10401153;28;20532;-69
2021/10/24 20:44:50;;;;;;;9.32;3.33;;;;;;;6.27;100.00;98988.78;10391939;28;20049;-68
2021/10/24 20:49:53;;;;;;;10.20;3.40;;;;;;;6.33;100.00;98993.63;10408116;28;20049;-68
2021/10/24 20:54:58;;;;;;;9.77;3.47;;;;;;;6.23;100.00;98987.28;10404669;28;20128;-69
2021/10/24 21:00:01;;;;;;;7.85;3.38;;;;;;;6.17;100.00;98989.47;10406129;28;20546;-69
2021/10/24 21:05:04;;;;;;;10.55;3.05;;;;;;;6.12;100.00;98988.97;10411578;28;20518;-69
2021/10/24 21:10:09;;;;;;;8.98;3.40;;;;;;;6.08;100.00;98992.84;10410539;28;20041;-69
2021/10/24 21:15:12;;;;;;;5.93;2.95;;;;;;;6.08;100.00;98986.66;10410041;28;21458;-68
2021/10/24 21:20:15;;;;;;;9.40;3.35;;;;;;;6.06;100.00;98983.25;10413743;28;20043;-68
2021/10/24 21:25:20;;;;;;;7.10;2.92;;;;;;;6.07;100.00;98982.28;10402585;28;20046;-67
2021/10/24 21:30:23;;;;;;;9.82;3.42;;;;;;;6.04;100.00;98983.38;10411905;28;20049;-67
2021/10/24 21:35:26;;;;;;;7.93;3.20;;;;;;;6.01;100.00;98978.25;10400456;28;20052;-68
2021/10/24 21:40:31;;;;;;;11.63;3.50;;;;;;;5.99;100.00;98974.81;10405088;28;20050;-68
2021/10/24 21:45:34;;;;;;;10.35;3.30;;;;;;;5.98;100.00;98978.47;10405463;28;20042;-69
2021/10/24 21:50:37;;;;;;;9.15;3.25;;;;;;;5.98;100.00;98975.78;10404095;28;20402;-69
2021/10/24 21:55:41;;;;;;;11.32;3.53;;;;;;;6.05;100.00;98963.69;10405138;28;20045;-69
2021/10/24 22:00:46;;;;;;;11.40;3.53;;;;;;;5.98;100.00;98973.09;10409482;28;20153;-67
2021/10/24 22:05:49;;;;;;;9.60;3.30;;;;;;;5.95;100.00;98971.53;10401020;28;20439;-69
2021/10/24 22:10:54;;;;;;;10.13;3.70;;;;;;;5.96;100.00;98972.38;10406571;28;20046;-69
2021/10/24 22:15:58;;;;;;;10.23;3.95;;;;;;;5.91;100.00;98958.53;10424449;28;20396;-69
2021/10/24 22:21:01;;;;;;;8.55;3.28;;;;;;;5.84;100.00;98955.47;10404746;28;20068;-69
2021/10/24 22:26:05;;;;;;;12.50;3.60;;;;;;;5.81;100.00;98942.31;10407205;28;20457;-69
2021/10/24 22:31:09;;;;;;;10.30;3.60;;;;;;;5.84;100.00;98934.91;10410277;28;20045;-69
2021/10/24 22:36:12;;;;;;;9.85;3.15;;;;;;;5.86;100.00;98924.94;10405874;28;20052;-69
2021/10/24 22:41:16;;;;;;;9.30;3.80;;;;;;;5.93;100.00;98928.00;10402700;28;20479;-69
2021/10/24 22:46:19;;;;;;;11.82;3.58;;;;;;;5.86;100.00;98916.09;10406534;28;20041;-69
2021/10/24 22:51:25;;;;;;;10.75;3.80;;;;;;;5.86;100.00;98922.28;10408348;28;20045;-68
2021/10/24 22:56:30;;;;;;;8.68;3.70;;;;;;;5.94;100.00;98912.81;10413285;28;20065;-68
2021/10/24 23:01:33;;;;;;;8.85;3.22;;;;;;;5.90;100.00;98914.03;10406081;28;20049;-69
2021/10/24 23:06:36;;;;;;;9.63;3.53;;;;;;;5.87;100.00;98912.44;10406221;28;20061;-68
2021/10/24 23:11:41;;;;;;;7.78;3.47;;;;;;;5.82;100.00;98910.09;10398822;28;20068;-68
2021/10/24 23:16:44;;;;;;;11.43;3.35;;;;;;;5.76;100.00;98913.25;10403086;28;20055;-68
2021/10/24 23:21:49;;;;;;;7.20;3.53;;;;;;;5.68;100.00;98907.66;10402782;28;20043;-68
2021/10/24 23:26:53;;;;;;;10.32;3.42;;;;;;;5.67;100.00;98903.28;10405625;28;20044;-68
2021/10/24 23:31:56;;;;;;;9.63;3.55;;;;;;;5.62;100.00;98906.31;10402936;28;20037;-68
2021/10/24 23:36:59;;;;;;;10.80;3.85;;;;;;;5.54;100.00;98903.34;10406957;28;20040;-69
2021/10/24 23:42:04;;;;;;;9.73;3.50;;;;;;;5.51;100.00;98900.94;10397787;28;20222;-69
2021/10/24 23:47:08;;;;;;;9.18;3.33;;;;;;;5.48;100.00;98904.69;10399796;28;20127;-68
2021/10/24 23:52:11;;;;;;;10.40;3.40;;;;;;;5.49;100.00;98908.22;10408638;28;20045;-68
2021/10/24 23:57:17;;;;;;;11.38;3.38;;;;;;;5.47;100.00;98905.66;10406524;28;20511;-69
